Cheraw, South Carolina
Current Conditions -  °F | °C
As of 11:15 PM on Friday 31 Oct 2014 (Local Time) from KCQW Reporting Station
Few Clouds Few Clouds  
Wind Chill: 50°   Ceiling: Unl
Heat Index: 50°   Visibility: 9mi
Dew Point: 50°   Wind: 5mph
Humidity: 100%   Direction: 290°WNW
Pressure: 29.78"   Gusts: NA
Location:  34.7°N, 79.88°W
Report Text: KCQW 010315Z AUTO 29004KT 9SM FEW001 10/10 A2978 RMK AO2
Loading
Personal Weather Stations






























Interactive Weather Map
Tropical Storm Tracking
New forecast layout! Learn more

10-Day Weather Forecast

Advertisements
Track Severe Weather on mobile